createdAt,value
2022-08-26T00:01:57.126Z,101791.53
2022-08-26T00:04:28.713Z,101792.38
2022-08-26T00:06:56.827Z,101789.38
2022-08-26T00:09:25.792Z,101794.00
2022-08-26T00:11:54.487Z,101790.47
2022-08-26T00:14:27.186Z,101787.72
2022-08-26T00:17:00.196Z,101798.06
2022-08-26T00:19:27.858Z,101793.16
2022-08-26T00:21:55.804Z,101792.63
2022-08-26T00:24:23.757Z,101795.88
2022-08-26T00:26:51.793Z,101790.69
2022-08-26T00:29:21.328Z,101792.84
2022-08-26T00:31:50.028Z,101795.31
2022-08-26T00:34:19.399Z,101787.13
2022-08-26T00:36:51.797Z,101793.91
2022-08-26T00:39:20.732Z,101788.19
2022-08-26T00:41:48.847Z,101790.34
2022-08-26T00:44:17.690Z,101796.88
2022-08-26T00:46:49.432Z,101799.06
2022-08-26T00:49:22.156Z,101791.97
2022-08-26T00:51:55.947Z,101785.72
2022-08-26T00:54:27.463Z,101791.97
2022-08-26T00:57:15.839Z,101785.47
2022-08-26T00:59:48.154Z,101786.28
2022-08-26T01:02:21.297Z,101780.84
2022-08-26T01:04:56.536Z,101786.53
2022-08-26T01:07:30.022Z,101787.06
2022-08-26T01:10:05.663Z,101778.38
2022-08-26T01:12:38.851Z,101781.06
2022-08-26T01:15:11.885Z,101786.78
2022-08-26T01:17:41.379Z,101780.53
2022-08-26T01:20:39.293Z,101784.06
2022-08-26T01:23:10.038Z,101788.13
2022-08-26T01:25:43.073Z,101785.94
2022-08-26T01:28:16.433Z,101785.41
2022-08-26T01:30:47.505Z,101785.41
2022-08-26T01:33:20.920Z,101785.41
2022-08-26T01:35:49.332Z,101789.19
2022-08-26T01:38:18.583Z,101783.47
2022-08-26T01:40:46.549Z,101793.25
2022-08-26T01:43:19.197Z,101788.91
2022-08-26T01:45:49.781Z,101792.97
2022-08-26T01:48:23.515Z,101783.09
2022-08-26T01:50:52.192Z,101784.44
2022-08-26T01:53:22.715Z,101786.56
2022-08-26T01:55:55.586Z,101780.56
2022-08-26T01:58:35.197Z,101774.28
2022-08-26T02:01:03.881Z,101768.28
2022-08-26T02:03:33.156Z,101782.69
2022-08-26T02:06:09.387Z,101777.50
2022-08-26T02:08:40.071Z,101789.50
2022-08-26T02:11:08.272Z,101788.13
2022-08-26T02:13:41.715Z,101787.41
2022-08-26T02:16:11.372Z,101784.69
2022-08-26T02:18:41.686Z,101791.25
2022-08-26T02:21:12.261Z,101796.75
2022-08-26T02:23:40.703Z,101802.44
2022-08-26T02:26:12.309Z,101798.66
2022-08-26T02:28:56.000Z,101801.13
2022-08-26T02:31:24.654Z,101800.56
2022-08-26T02:33:52.309Z,101803.56
2022-08-26T02:36:28.707Z,101801.41
2022-08-26T02:38:56.547Z,101810.81
2022-08-26T02:41:24.103Z,101809.59
2022-08-26T02:43:52.135Z,101803.38
2022-08-26T02:46:27.965Z,101806.69
2022-08-26T02:48:58.949Z,101804.25
2022-08-26T02:51:26.400Z,101800.75
2022-08-26T02:53:54.261Z,101803.78
2022-08-26T02:56:23.652Z,101791.75
2022-08-26T02:58:51.161Z,101794.38
2022-08-26T03:01:30.998Z,101796.94
2022-08-26T03:04:00.281Z,101785.25
2022-08-26T03:06:28.497Z,101780.03
2022-08-26T03:08:56.134Z,101789.84
2022-08-26T03:11:24.607Z,101788.22
2022-08-26T03:13:52.784Z,101791.81
2022-08-26T03:16:20.999Z,101792.66
2022-08-26T03:18:52.086Z,101795.91
2022-08-26T03:21:21.210Z,101800.22
2022-08-26T03:23:48.817Z,101805.41
2022-08-26T03:26:17.039Z,101807.13
2022-08-26T03:29:02.757Z,101808.78
2022-08-26T03:31:31.493Z,101811.75
2022-08-26T03:34:00.563Z,101815.31
2022-08-26T03:36:28.212Z,101815.69
2022-08-26T03:38:56.988Z,101825.28
2022-08-26T03:41:24.995Z,101815.69
2022-08-26T03:43:56.451Z,101819.59
2022-08-26T03:46:27.230Z,101826.53
2022-08-26T03:48:55.097Z,101821.75
2022-08-26T03:51:22.672Z,101826.44
2022-08-26T03:53:51.891Z,101829.34
2022-08-26T03:56:19.659Z,101819.72
2022-08-26T03:58:47.168Z,101829.38
2022-08-26T04:01:16.145Z,101828.41
2022-08-26T04:04:00.055Z,101826.47
2022-08-26T04:06:32.640Z,101832.50
2022-08-26T04:09:02.714Z,101829.41
2022-08-26T04:11:34.645Z,101829.94
2022-08-26T04:14:06.826Z,101832.84
2022-08-26T04:16:38.442Z,101842.41
2022-08-26T04:19:06.881Z,101843.97
2022-08-26T04:21:35.318Z,101842.00
2022-08-26T04:24:03.558Z,101847.50
2022-08-26T04:26:39.518Z,101848.75
2022-08-26T04:29:16.180Z,101861.41
2022-08-26T04:31:44.583Z,101856.47
2022-08-26T04:34:14.117Z,101851.25
2022-08-26T04:36:43.433Z,101853.22
2022-08-26T04:39:13.121Z,101856.09
2022-08-26T04:41:41.121Z,101859.44
2022-08-26T04:44:08.888Z,101859.09
2022-08-26T04:46:43.801Z,101851.03
2022-08-26T04:49:13.366Z,101856.47
2022-08-26T04:51:41.231Z,101861.53
2022-08-26T04:54:12.487Z,101857.72
2022-08-26T04:56:42.266Z,101856.22
2022-08-26T04:59:17.051Z,101857.41
2022-08-26T05:01:51.661Z,101858.16
2022-08-26T05:04:21.417Z,101852.63
2022-08-26T05:06:50.641Z,101852.81
2022-08-26T05:09:19.878Z,101850.19
2022-08-26T05:11:51.860Z,101848.56
2022-08-26T05:14:21.405Z,101847.50
2022-08-26T05:16:50.130Z,101855.78
2022-08-26T05:19:19.213Z,101857.25
2022-08-26T05:21:48.837Z,101851.09
2022-08-26T05:24:17.897Z,101852.16
2022-08-26T05:26:45.930Z,101856.72
2022-08-26T05:29:14.345Z,101848.03
2022-08-26T05:31:42.188Z,101853.38
2022-08-26T05:34:10.441Z,101852.69
2022-08-26T05:36:39.064Z,101864.53
2022-08-26T05:39:07.598Z,101854.53
2022-08-26T05:41:41.152Z,101871.53
2022-08-26T05:44:11.524Z,101870.41
2022-08-26T05:46:40.718Z,101874.38
2022-08-26T05:49:12.482Z,101867.97
2022-08-26T05:51:45.232Z,101871.25
2022-08-26T05:54:14.636Z,101874.31
2022-08-26T05:56:49.528Z,101874.44
2022-08-26T05:59:17.062Z,101862.53
2022-08-26T06:01:52.190Z,101859.25
2022-08-26T06:04:51.118Z,101864.91
